Kezdőlap
METAR-TAF:

METAR-TAF

Repülőterek :

Zaqatala, Azerbajdzsán

földrajzi szélesség: 41-33-44N, földrajzi hosszúság: 46-40-02E, magasság: 330 m

Jelenlegi meteorológiai megfigyelések

A jelentés 23 perccel ezelõtt készült, 10:00 UTC
Észak-északkeleti szél 4 kt
Hőmérséklet 9°C
Páratartalom 76%
Légköri nyomás 1028 hPa
Látótávolság 10 km, vagy több
Szórványos felhőzet 1800 lábon, Cumulonimbus.
Szakadozott felhőzet 3700 lábon

METAR: UBBY 231000Z 02004KT 9999 SCT018CB BKN037 09/05 Q1028 R33/290060 NOSIG RMK MT OBSC

Idő: 14:23 (10:23 UTC)

Előrejelzés

A jelentés 5 órával és 23 perccel ezelõtt készült, 05:00 UTC
Az előrejelzés 23-én 06 óra UTC és 23-én 15 óra UTC között érvényes
Különbözõ irányokból fújó szél 4 kt
Látótávolság 10 km, vagy több
Szórványos felhőzet 2000 lábon
Borult 4000 lábon

TAF: UBBY 230500Z 2306/2315 VRB04KT 9999 SCT020 OVC040

Meteorológiai megfigyelések és előrejelzések több, mint 4000 repülőtéren (METAR és TAF jelentéseket).

A térképen piros és sárga pontok jelzik az elérhető meteorológiai állomásokat.

Mozgassa az egeret a pont fölött, hogy megjelenjen az állomás neve.

Azután kattintson az időjárási megfigyelések és előrejelzések megtekintéséhez.

A térkép megváltoztatása: kattintson a fekete keresztel jelölt zöld gombra ráközelítéshez, a vonallal jelölt zöld gombra távolításhoz, vagy a zöld nyilakra a szomszédos térképek eléréséhez.


METAR-TAF: